AirNav  
 
 1167 users online  

NJ71 Holmansville Heliport
Holmansville, New Jersey, USA

GOING TO HOLMANSVILLE?


FAA INFORMATION EFFECTIVE 01 FEBRUARY 2018

Location

FAA Identifier: NJ71
Lat/Long: 40-06-00.4120N / 074-19-03.5280W
40-06.006867N / 074-19.058800W
40.1001144 / -74.3176467
(estimated)
Elevation: 110 ft. / 34 m (estimated)
Variation: 12W (1985)
From city: 5 miles E of HOLMANSVILLE, NJ
Time zone: UTC -5 (UTC -4 during Daylight Saving Time)
Zip code: 08527

Heliport Operations

Heliport use: Private use. Permission required prior to landing
Activation date: 01/1970
Control tower: no
ARTCC: NEW YORK CENTER
FSS: MILLVILLE FLIGHT SERVICE STATION
Attendance: IREG
Wind indicator: no
Segmented circle: no

Heliport Communications

WX AWOS-AV at N12 (7 nm E): 122.8 (732-363-6471)
WX AWOS-3PT at BLM (10 nm NE): 121.625 (732-938-3330)
WX AWOS-3PT at MJX (10 nm S): 119.875 (732-797-2542)

Nearby radio navigation aids

VOR radial/distance  VOR name  Freq  Var
RBVr137/10.2ROBBINSVILLE VORTAC113.8010W
GXUr079/13.9MC GUIRE VORTAC110.6012W
COLr221/14.6COLTS NECK VOR/DME115.4011W
CYNr027/17.8COYLE VORTAC113.4010W
ARDr119/28.6YARDLEY VOR/DME108.2010W
PNEr098/(31.8)NORTH PHILADELPHIA VOR112.0010W
SBJr156/34.9SOLBERG VOR/DME112.9010W
CRIr223/36.3CANARSIE VOR/DME112.3011W

 
NDB name  Hdg/Dist  Freq  Var  ID
LAKEHURST025/3.439611WNEL -. . .-..
BRIDGE227/34.441412WOGY --- --. -.--
CHATHAM185/38.825413WCAT -.-. .- -

Heliport Services

Airframe service: NONE
Powerplant service: NONE

Runway Information

Helipad H1

Dimensions: 475 x 465 ft. / 145 x 142 m
Surface: turf, in fair condition
Latitude: 40-06.006867N
Longitude: 074-19.058800W
Elevation: 110.0 ft.
Traffic pattern: leftleft
Markings: none, in fair condition

Heliport Ownership and Management from official FAA records

Ownership: Publicly-owned
Owner: NJ FOREST FIRE SERVICE
CN 404 501 EAST STATE ST
TRENTON, NJ 08625
Manager: STATE FIRE WARDEN
CN-404
TRENTON, NJ 08625
Phone 609-292-2977

Additional Remarks

A52-H1 STATE QUAIL FARM BLDGS-M; STATE FOREST NURSERY.
EMGCY FOREST FIRE AIR ATTACK BASE LCTD AT FOREST TREE NURSERY.
OFFICIAL USE ONLY: DAY VFR FOR FOREST FIRE, FORESTRY, EMS AND LAW ENFORCEMENT ONLY.
PERMISSION REQUIRED BEFORE USE(PPR).

Instrument Procedures

There are no published instrument procedures at NJ71.

Some nearby airports with instrument procedures:

KNEL - Lakehurst Maxfield Field Airport (4 nm S)
N12 - Lakewood Airport (7 nm E)
KBLM - Monmouth Executive Airport (10 nm NE)
KMJX - Ocean County Airport (10 nm S)
KWRI - McGuire Field (Joint Base Mc Guire Dix Lakehurst) Airport (14 nm W)
3N6 - Old Bridge Airport (14 nm N)
N87 - Trenton-Robbinsville Airport (15 nm NW)
 
Loc | Ops | Rwys | IFR | FBO | Links
Com | Nav | Svcs | Stats | Notes

AirNav Hotels Sweepstakes
 
Area around NJ71 (Holmansville Heliport)
 
Road maps at: MapQuest Bing Google
 
Aerial photo
No photo
 
Sectional chart

 
Airport distance calculator
Flying to Holmansville Heliport? Find the distance to fly.

From to NJ71

Sunrise and sunset
Times for 25-Feb-2018
 Local
(UTC-5)
 Zulu
(UTC)
Morning civil twilight06:1011:10
Sunrise06:3811:38
Sunset17:4322:43
Evening civil twilight18:1023:10

Current date and time
Zulu (UTC)  25-Feb-2018 22:17:24
Local (UTC-5)  25-Feb-2018 17:17:24
 
METAR
KNEL 
5nm S 
252200Z AUTO VRB03KT 3/4SM OVC004 08/08 A2998 RMK AO2 SFC VIS 7 SLP150 T00780078 PNO $
KBLM 
10nm NE 
AWOS-3 121.625 732-938-3330
252156Z AUTO 34006KT 6SM BR OVC003 06/06 A2999 RMK AO2 SLP159 T00610056
KMJX 
10nm S 
AWOS-3 119.875 732-244-4450
252056Z AUTO 31006KT 10SM OVC004 08/07 A2999 RMK AO2 SLP160 6//// T00780072 53028 PNO $
KWRI 
13nm W 
252156Z AUTO 36005KT 10SM OVC004 08/07 A2996 RMK AO2 CIG 003 RWY18 SLP146 T00750069
TAF
KWRI 
13nm W 
252017Z 2520/2624 03006KT 9999 OVC004 510202 QNH2991INS BECMG 2523/2601 VRB06KT 9999 BKN010 OVC100 QNH2993INS BECMG 2601/2603 31006KT 9999 FEW012 BKN150 QNH2995INS BECMG 2617/2618 33006KT 9999 SCT150 QNH3009INS TX11/2521Z TN05/2610Z
NOTAMs
Click for the latest NOTAMs
NOTAMs are issued by the DoD/FAA and will open in a separate window not controlled by AirNav.

 

 
 

Would you like to see your business listed on this page?

 If your business provides an interesting product or service to pilots, flight crews, aircraft, or users of the Holmansville Heliport, you should consider listing it here.  To start the listing process, click on the button below
 
Add a business
 

Other Pages about Holmansville Heliport

Update a link
 
Copyright © AirNav, LLC. All rights reserved. Privacy Policy  Contact